Rejestracja

Wszystkie dane podawane są w czasie UTC za wyjątkiem miejsc gdzie jest jednoznacznie podane, że jest inaczej. Dane podawane w serwisie mają charakter informacyjny!!!
Informacje w sprawie dostępu do serwisu pod numerem tel. +48 261-828-559 lub +48 261-828-138
Informacja dla żołnierzy i pracowników wojska: Prosimy o niezwłoczną zmianę adresu e-mail w profilu użytkownika na pocztę w domenie @ron.mil.pl

Aktualna Pogoda
 
Pogoda w Polsce
10°C Szczecin 10°C Suwałki 12°C Warszawa 13°C Poznan
13°C Opole 13°C Kraków 12°C Rzeszów
Więcej miast w Polsce

Pogoda w Europie
9°C Berlin 15°C Paryz 13°C Bruksela 11°C Oslo
8°C Praga 11°C Zagrzeb
Więcej miast w Europie

Metary wojskowe test
METAR EPCE 300330Z 35002KT 0200 R07/0700 FG VV002 12/12 Q1016 RMK 122 100 ///=
METAR EPDA 300330Z VRB02KT 0200 FG VV002 07/07 Q1016 RMK 073 097 ///=
METAR EPDE 300300Z 33004KT 8000 -RA BKN040 BKN080 11/11 Q1010 RMK 114 095 7/5=
METAR EPIR 300330Z AUTO 32008KT VV114 12/11 Q1014 RMK 122 090 ///=
METAR EPKS 300300Z 33004KT 9999 OVC030 13/13 Q1015 RMK 128 100 8/8=
METAR EPLK 300330Z 36005KT 320V050 7000 OVC004 12/12 Q1013 RMK 116 100 8/8=
METAR EPLY 300330Z AUTO 32002KT 12/11 Q1013 RMK 115 097 ///=
METAR EPMB 300300Z 34006KT 9999 SCT100 14/13 Q1015 RMK 139 097 4/4=
METAR EPMI 300300Z 03004KT 9999 SCT073 13/11 Q1016 RMK 125 089 4/4=
METAR EPMM 300300Z 01007KT 350V050 9999 BKN100 10/09 Q1011 RMK 101 092 7/7=
METAR EPOK 300330Z 31003KT 6000 FEW007 BKN173 14/13 Q1016 RMK 136 099 7/1=
METAR EPPR 300300Z 31004KT 9999 SCT116 BKN175 13/11 Q1016 RMK 130 088 5/3=
METAR EPPW 300300Z 02006KT 9999 BKN025 OVC060 13/12 Q1014 RMK 127 097 8/5=
METAR EPSN 300330Z VRB02KT 0500 R29/0900N FG BKN002 08/08 Q1016 RMK 075 100 6/6=
METAR EPTM 300300Z AUTO 33008KT ///139 ///146 11/10 Q1012 RMK 109 092 ///=


 

Prawa autorskie©2007 SSH SZ RP. Wszelkie prawa zastrzeżone.